sensor_id;sensor_type;location;lat;lon;timestamp;temperature;humidity
37289;DHT22;23174;49.462;11.000;2023-02-28T00:00:00;4.80;99.90
37289;DHT22;23174;49.462;11.000;2023-02-28T00:02:00;4.70;99.90
37289;DHT22;23174;49.462;11.000;2023-02-28T00:04:01;4.70;99.90
37289;DHT22;23174;49.462;11.000;2023-02-28T00:06:04;4.50;99.90
37289;DHT22;23174;49.462;11.000;2023-02-28T00:08:05;4.50;99.90
37289;DHT22;23174;49.462;11.000;2023-02-28T00:10:07;4.40;99.90
37289;DHT22;23174;49.462;11.000;2023-02-28T00:12:08;4.40;99.90
37289;DHT22;23174;49.462;11.000;2023-02-28T00:14:10;4.40;99.90
37289;DHT22;23174;49.462;11.000;2023-02-28T00:16:13;4.40;99.90
37289;DHT22;23174;49.462;11.000;2023-02-28T00:18:14;4.40;99.90
37289;DHT22;23174;49.462;11.000;2023-02-28T00:20:15;4.50;99.90
37289;DHT22;23174;49.462;11.000;2023-02-28T00:22:17;4.50;99.90
37289;DHT22;23174;49.462;11.000;2023-02-28T00:24:18;4.40;99.90
37289;DHT22;23174;49.462;11.000;2023-02-28T00:26:18;4.40;99.90
37289;DHT22;23174;49.462;11.000;2023-02-28T00:28:20;4.40;99.90
37289;DHT22;23174;49.462;11.000;2023-02-28T00:30:22;4.40;99.90
37289;DHT22;23174;49.462;11.000;2023-02-28T00:32:23;4.40;99.90
37289;DHT22;23174;49.462;11.000;2023-02-28T00:34:24;4.50;99.90
37289;DHT22;23174;49.462;11.000;2023-02-28T00:36:24;4.50;99.90
37289;DHT22;23174;49.462;11.000;2023-02-28T00:38:25;4.50;99.90
37289;DHT22;23174;49.462;11.000;2023-02-28T00:40:25;4.50;99.90
37289;DHT22;23174;49.462;11.000;2023-02-28T00:42:26;4.50;99.90
37289;DHT22;23174;49.462;11.000;2023-02-28T00:44:28;4.50;99.90
37289;DHT22;23174;49.462;11.000;2023-02-28T00:46:28;4.50;99.90
37289;DHT22;23174;49.462;11.000;2023-02-28T00:48:29;4.50;99.90
37289;DHT22;23174;49.462;11.000;2023-02-28T00:50:30;4.50;99.90
37289;DHT22;23174;49.462;11.000;2023-02-28T00:52:30;4.50;99.90
37289;DHT22;23174;49.462;11.000;2023-02-28T00:54:31;4.50;99.90
37289;DHT22;23174;49.462;11.000;2023-02-28T00:56:31;4.50;99.90
37289;DHT22;23174;49.462;11.000;2023-02-28T00:58:32;4.40;99.90
37289;DHT22;23174;49.462;11.000;2023-02-28T01:00:33;4.40;99.90
37289;DHT22;23174;49.462;11.000;2023-02-28T01:02:33;4.40;99.90
37289;DHT22;23174;49.462;11.000;2023-02-28T01:04:35;4.40;99.90
37289;DHT22;23174;49.462;11.000;2023-02-28T01:06:36;4.30;99.90
37289;DHT22;23174;49.462;11.000;2023-02-28T01:08:36;4.40;99.90
37289;DHT22;23174;49.462;11.000;2023-02-28T01:10:37;4.40;99.90
37289;DHT22;23174;49.462;11.000;2023-02-28T01:12:38;4.40;99.90
37289;DHT22;23174;49.462;11.000;2023-02-28T01:14:39;4.40;99.90
37289;DHT22;23174;49.462;11.000;2023-02-28T01:16:39;4.50;99.90
37289;DHT22;23174;49.462;11.000;2023-02-28T01:18:40;4.40;99.90
37289;DHT22;23174;49.462;11.000;2023-02-28T01:20:41;4.40;99.90
37289;DHT22;23174;49.462;11.000;2023-02-28T01:22:41;4.50;99.90
37289;DHT22;23174;49.462;11.000;2023-02-28T01:24:42;4.50;99.90
37289;DHT22;23174;49.462;11.000;2023-02-28T01:26:43;4.50;99.90
37289;DHT22;23174;49.462;11.000;2023-02-28T01:28:43;4.50;99.90
37289;DHT22;23174;49.462;11.000;2023-02-28T01:30:48;4.50;99.90
37289;DHT22;23174;49.462;11.000;2023-02-28T01:32:49;4.50;99.90
37289;DHT22;23174;49.462;11.000;2023-02-28T01:34:51;4.50;99.90
37289;DHT22;23174;49.462;11.000;2023-02-28T01:36:52;4.50;99.90
37289;DHT22;23174;49.462;11.000;2023-02-28T01:38:53;4.50;99.90
37289;DHT22;23174;49.462;11.000;2023-02-28T01:40:54;4.50;99.90
37289;DHT22;23174;49.462;11.000;2023-02-28T01:42:54;4.50;99.90
37289;DHT22;23174;49.462;11.000;2023-02-28T01:44:59;4.50;99.90
37289;DHT22;23174;49.462;11.000;2023-02-28T01:47:00;4.50;99.90
37289;DHT22;23174;49.462;11.000;2023-02-28T01:49:05;4.50;99.90
37289;DHT22;23174;49.462;11.000;2023-02-28T01:51:21;4.50;99.90
37289;DHT22;23174;49.462;11.000;2023-02-28T01:53:29;4.50;99.90
37289;DHT22;23174;49.462;11.000;2023-02-28T01:55:32;4.40;99.90
37289;DHT22;23174;49.462;11.000;2023-02-28T01:57:36;4.40;99.90
37289;DHT22;23174;49.462;11.000;2023-02-28T01:59:46;4.40;99.90
37289;DHT22;23174;49.462;11.000;2023-02-28T02:01:51;4.40;99.90
37289;DHT22;23174;49.462;11.000;2023-02-28T02:04:00;4.40;99.90
37289;DHT22;23174;49.462;11.000;2023-02-28T02:06:02;4.40;99.90
37289;DHT22;23174;49.462;11.000;2023-02-28T02:08:05;4.40;99.90
37289;DHT22;23174;49.462;11.000;2023-02-28T02:13:09;4.30;99.90
37289;DHT22;23174;49.462;11.000;2023-02-28T02:15:34;4.40;99.90
37289;DHT22;23174;49.462;11.000;2023-02-28T02:17:39;4.40;99.90
37289;DHT22;23174;49.462;11.000;2023-02-28T02:20:04;4.40;99.90
37289;DHT22;23174;49.462;11.000;2023-02-28T02:22:36;4.40;99.90
37289;DHT22;23174;49.462;11.000;2023-02-28T02:32:19;4.40;99.90
37289;DHT22;23174;49.462;11.000;2023-02-28T02:34:43;4.30;99.90
37289;DHT22;23174;49.462;11.000;2023-02-28T02:36:55;4.40;99.90
37289;DHT22;23174;49.462;11.000;2023-02-28T02:39:14;4.30;99.90
37289;DHT22;23174;49.462;11.000;2023-02-28T02:43:32;4.30;99.90
37289;DHT22;23174;49.462;11.000;2023-02-28T02:45:48;4.30;99.90
37289;DHT22;23174;49.462;11.000;2023-02-28T02:47:50;4.30;99.90
37289;DHT22;23174;49.462;11.000;2023-02-28T02:49:57;4.20;99.90
37289;DHT22;23174;49.462;11.000;2023-02-28T02:52:04;4.30;99.90
37289;DHT22;23174;49.462;11.000;2023-02-28T02:54:11;4.30;99.90
37289;DHT22;23174;49.462;11.000;2023-02-28T02:56:19;4.30;99.90
37289;DHT22;23174;49.462;11.000;2023-02-28T02:58:32;4.20;99.90
37289;DHT22;23174;49.462;11.000;2023-02-28T03:00:44;4.30;99.90
37289;DHT22;23174;49.462;11.000;2023-02-28T03:02:48;4.20;99.90
37289;DHT22;23174;49.462;11.000;2023-02-28T03:04:56;4.20;99.90
37289;DHT22;23174;49.462;11.000;2023-02-28T03:07:00;4.20;99.90
37289;DHT22;23174;49.462;11.000;2023-02-28T03:09:02;4.20;99.90
37289;DHT22;23174;49.462;11.000;2023-02-28T03:11:05;4.30;99.90
37289;DHT22;23174;49.462;11.000;2023-02-28T03:15:29;4.30;99.90
37289;DHT22;23174;49.462;11.000;2023-02-28T03:18:22;4.30;99.90
37289;DHT22;23174;49.462;11.000;2023-02-28T03:22:56;4.20;99.90
37289;DHT22;23174;49.462;11.000;2023-02-28T03:25:17;4.40;99.90
37289;DHT22;23174;49.462;11.000;2023-02-28T03:27:35;4.30;99.90
37289;DHT22;23174;49.462;11.000;2023-02-28T03:29:43;4.30;99.90
37289;DHT22;23174;49.462;11.000;2023-02-28T03:36:29;4.30;99.90
37289;DHT22;23174;49.462;11.000;2023-02-28T03:38:41;4.30;99.90
37289;DHT22;23174;49.462;11.000;2023-02-28T03:40:48;4.30;99.90
37289;DHT22;23174;49.462;11.000;2023-02-28T03:42:56;4.30;99.90
37289;DHT22;23174;49.462;11.000;2023-02-28T03:45:10;4.30;99.90
37289;DHT22;23174;49.462;11.000;2023-02-28T03:49:31;4.20;99.90
37289;DHT22;23174;49.462;11.000;2023-02-28T03:51:33;4.20;99.90
37289;DHT22;23174;49.462;11.000;2023-02-28T03:53:45;4.20;99.90
37289;DHT22;23174;49.462;11.000;2023-02-28T03:55:52;4.20;99.90
37289;DHT22;23174;49.462;11.000;2023-02-28T03:58:01;4.30;99.90
37289;DHT22;23174;49.462;11.000;2023-02-28T04:00:18;4.20;99.90
37289;DHT22;23174;49.462;11.000;2023-02-28T04:02:20;4.20;99.90
37289;DHT22;23174;49.462;11.000;2023-02-28T04:04:20;4.20;99.90
37289;DHT22;23174;49.462;11.000;2023-02-28T04:06:22;4.20;99.90
37289;DHT22;23174;49.462;11.000;2023-02-28T04:08:26;4.30;99.90
37289;DHT22;23174;49.462;11.000;2023-02-28T04:10:26;4.20;99.90
37289;DHT22;23174;49.462;11.000;2023-02-28T04:12:27;4.20;99.90
37289;DHT22;23174;49.462;11.000;2023-02-28T04:14:27;4.20;99.90
37289;DHT22;23174;49.462;11.000;2023-02-28T04:16:29;4.30;99.90
37289;DHT22;23174;49.462;11.000;2023-02-28T04:18:30;4.30;99.90
37289;DHT22;23174;49.462;11.000;2023-02-28T04:20:30;4.30;99.90
37289;DHT22;23174;49.462;11.000;2023-02-28T04:22:31;4.30;99.90
37289;DHT22;23174;49.462;11.000;2023-02-28T04:24:31;4.30;99.90
37289;DHT22;23174;49.462;11.000;2023-02-28T04:26:36;4.30;99.90
37289;DHT22;23174;49.462;11.000;2023-02-28T04:28:37;4.20;99.90
37289;DHT22;23174;49.462;11.000;2023-02-28T04:30:38;4.20;99.90
37289;DHT22;23174;49.462;11.000;2023-02-28T04:32:39;4.20;99.90
37289;DHT22;23174;49.462;11.000;2023-02-28T04:34:40;4.20;99.90
37289;DHT22;23174;49.462;11.000;2023-02-28T04:36:40;4.30;99.90
37289;DHT22;23174;49.462;11.000;2023-02-28T04:38:41;4.20;99.90
37289;DHT22;23174;49.462;11.000;2023-02-28T04:40:41;4.30;99.90
37289;DHT22;23174;49.462;11.000;2023-02-28T04:42:42;4.30;99.90
37289;DHT22;23174;49.462;11.000;2023-02-28T04:44:45;4.20;99.90
37289;DHT22;23174;49.462;11.000;2023-02-28T04:46:48;4.30;99.90
37289;DHT22;23174;49.462;11.000;2023-02-28T04:48:49;4.20;99.90
37289;DHT22;23174;49.462;11.000;2023-02-28T04:50:50;4.20;99.90
37289;DHT22;23174;49.462;11.000;2023-02-28T04:52:51;4.20;99.90
37289;DHT22;23174;49.462;11.000;2023-02-28T04:54:51;4.20;99.90
37289;DHT22;23174;49.462;11.000;2023-02-28T04:56:52;4.20;99.90
37289;DHT22;23174;49.462;11.000;2023-02-28T04:58:52;4.20;99.90
37289;DHT22;23174;49.462;11.000;2023-02-28T05:00:54;4.20;99.90
37289;DHT22;23174;49.462;11.000;2023-02-28T05:02:54;4.20;99.90
37289;DHT22;23174;49.462;11.000;2023-02-28T05:04:55;4.30;99.90
37289;DHT22;23174;49.462;11.000;2023-02-28T05:06:55;4.30;99.90
37289;DHT22;23174;49.462;11.000;2023-02-28T05:08:56;4.40;99.90
37289;DHT22;23174;49.462;11.000;2023-02-28T05:10:57;4.30;99.90
37289;DHT22;23174;49.462;11.000;2023-02-28T05:12:58;4.30;99.90
37289;DHT22;23174;49.462;11.000;2023-02-28T05:14:58;4.40;99.90
37289;DHT22;23174;49.462;11.000;2023-02-28T05:16:59;4.40;99.90
37289;DHT22;23174;49.462;11.000;2023-02-28T05:18:59;4.40;99.90
37289;DHT22;23174;49.462;11.000;2023-02-28T05:21:00;4.40;99.90
37289;DHT22;23174;49.462;11.000;2023-02-28T05:23:04;4.40;99.90
37289;DHT22;23174;49.462;11.000;2023-02-28T05:25:05;4.40;99.90
37289;DHT22;23174;49.462;11.000;2023-02-28T05:27:06;4.40;99.90
37289;DHT22;23174;49.462;11.000;2023-02-28T05:29:06;4.40;99.90
37289;DHT22;23174;49.462;11.000;2023-02-28T05:31:10;4.40;99.90
37289;DHT22;23174;49.462;11.000;2023-02-28T05:33:11;4.40;99.90
37289;DHT22;23174;49.462;11.000;2023-02-28T05:35:12;4.40;99.90
37289;DHT22;23174;49.462;11.000;2023-02-28T05:37:14;4.40;99.90
37289;DHT22;23174;49.462;11.000;2023-02-28T05:39:15;4.40;99.90
37289;DHT22;23174;49.462;11.000;2023-02-28T05:41:18;4.40;99.90
37289;DHT22;23174;49.462;11.000;2023-02-28T05:43:19;4.40;99.90
37289;DHT22;23174;49.462;11.000;2023-02-28T05:45:20;4.40;99.90
37289;DHT22;23174;49.462;11.000;2023-02-28T05:47:20;4.30;99.90
37289;DHT22;23174;49.462;11.000;2023-02-28T05:49:21;4.20;99.90
37289;DHT22;23174;49.462;11.000;2023-02-28T05:51:22;4.10;99.90
37289;DHT22;23174;49.462;11.000;2023-02-28T05:53:22;4.20;99.90
37289;DHT22;23174;49.462;11.000;2023-02-28T05:55:23;4.20;99.90
37289;DHT22;23174;49.462;11.000;2023-02-28T05:57:24;4.30;99.90
37289;DHT22;23174;49.462;11.000;2023-02-28T05:59:24;4.20;99.90
37289;DHT22;23174;49.462;11.000;2023-02-28T06:01:39;4.20;99.90
37289;DHT22;23174;49.462;11.000;2023-02-28T06:03:40;4.10;99.90
37289;DHT22;23174;49.462;11.000;2023-02-28T06:05:40;4.10;99.90
37289;DHT22;23174;49.462;11.000;2023-02-28T06:07:41;4.10;99.90
37289;DHT22;23174;49.462;11.000;2023-02-28T06:09:42;4.10;99.90
37289;DHT22;23174;49.462;11.000;2023-02-28T06:11:42;4.10;99.90
37289;DHT22;23174;49.462;11.000;2023-02-28T06:13:43;4.10;99.90
37289;DHT22;23174;49.462;11.000;2023-02-28T06:15:44;4.20;99.90
37289;DHT22;23174;49.462;11.000;2023-02-28T06:17:44;4.10;99.90
37289;DHT22;23174;49.462;11.000;2023-02-28T06:19:45;4.10;99.90
37289;DHT22;23174;49.462;11.000;2023-02-28T06:21:49;4.10;99.90
37289;DHT22;23174;49.462;11.000;2023-02-28T06:23:51;4.20;99.90
37289;DHT22;23174;49.462;11.000;2023-02-28T06:25:51;4.30;99.90
37289;DHT22;23174;49.462;11.000;2023-02-28T06:27:54;4.20;99.90
37289;DHT22;23174;49.462;11.000;2023-02-28T06:29:55;4.10;99.90
37289;DHT22;23174;49.462;11.000;2023-02-28T06:31:56;4.20;99.90
37289;DHT22;23174;49.462;11.000;2023-02-28T06:33:57;4.20;99.90
37289;DHT22;23174;49.462;11.000;2023-02-28T06:35:57;4.10;99.90
37289;DHT22;23174;49.462;11.000;2023-02-28T06:37:58;4.10;99.90
37289;DHT22;23174;49.462;11.000;2023-02-28T06:39:58;4.20;99.90
37289;DHT22;23174;49.462;11.000;2023-02-28T06:41:59;4.10;99.90
37289;DHT22;23174;49.462;11.000;2023-02-28T06:44:00;4.20;99.90
37289;DHT22;23174;49.462;11.000;2023-02-28T06:46:02;4.20;99.90
37289;DHT22;23174;49.462;11.000;2023-02-28T06:48:03;4.20;99.90
37289;DHT22;23174;49.462;11.000;2023-02-28T06:50:05;4.20;99.90
37289;DHT22;23174;49.462;11.000;2023-02-28T06:52:06;4.20;99.90
37289;DHT22;23174;49.462;11.000;2023-02-28T06:54:07;4.30;99.90
37289;DHT22;23174;49.462;11.000;2023-02-28T06:56:11;4.30;99.90
37289;DHT22;23174;49.462;11.000;2023-02-28T06:58:12;4.30;99.90
37289;DHT22;23174;49.462;11.000;2023-02-28T07:00:16;4.40;99.90
37289;DHT22;23174;49.462;11.000;2023-02-28T07:02:16;4.50;99.90
37289;DHT22;23174;49.462;11.000;2023-02-28T07:04:17;4.50;99.90
37289;DHT22;23174;49.462;11.000;2023-02-28T07:06:24;4.50;99.90
37289;DHT22;23174;49.462;11.000;2023-02-28T07:08:25;4.60;99.90
37289;DHT22;23174;49.462;11.000;2023-02-28T07:10:27;4.70;99.90
37289;DHT22;23174;49.462;11.000;2023-02-28T07:12:27;4.70;99.90
37289;DHT22;23174;49.462;11.000;2023-02-28T07:14:28;4.80;99.90
37289;DHT22;23174;49.462;11.000;2023-02-28T07:16:28;4.80;99.90
37289;DHT22;23174;49.462;11.000;2023-02-28T07:18:29;4.80;99.90
37289;DHT22;23174;49.462;11.000;2023-02-28T07:20:30;4.90;99.90
37289;DHT22;23174;49.462;11.000;2023-02-28T07:22:31;4.90;99.90
37289;DHT22;23174;49.462;11.000;2023-02-28T07:24:31;4.90;99.90
37289;DHT22;23174;49.462;11.000;2023-02-28T07:26:32;5.00;99.90
37289;DHT22;23174;49.462;11.000;2023-02-28T07:28:34;4.90;99.90
37289;DHT22;23174;49.462;11.000;2023-02-28T07:30:35;5.00;99.90
37289;DHT22;23174;49.462;11.000;2023-02-28T07:32:35;5.00;99.90
37289;DHT22;23174;49.462;11.000;2023-02-28T07:34:38;5.00;99.90
37289;DHT22;23174;49.462;11.000;2023-02-28T07:36:38;5.00;99.90
37289;DHT22;23174;49.462;11.000;2023-02-28T07:38:39;5.00;99.90
37289;DHT22;23174;49.462;11.000;2023-02-28T07:40:40;5.10;99.90
37289;DHT22;23174;49.462;11.000;2023-02-28T07:42:41;5.10;99.90
37289;DHT22;23174;49.462;11.000;2023-02-28T07:44:42;5.20;99.90
37289;DHT22;23174;49.462;11.000;2023-02-28T07:46:42;5.30;99.90
37289;DHT22;23174;49.462;11.000;2023-02-28T07:48:44;5.20;99.90
37289;DHT22;23174;49.462;11.000;2023-02-28T07:50:45;5.20;99.90
37289;DHT22;23174;49.462;11.000;2023-02-28T07:52:48;5.20;99.90
37289;DHT22;23174;49.462;11.000;2023-02-28T07:54:49;5.20;99.90
37289;DHT22;23174;49.462;11.000;2023-02-28T07:56:50;5.20;99.90
37289;DHT22;23174;49.462;11.000;2023-02-28T07:58:50;5.50;99.90
37289;DHT22;23174;49.462;11.000;2023-02-28T08:00:51;5.40;99.90
37289;DHT22;23174;49.462;11.000;2023-02-28T08:02:52;5.40;99.90
37289;DHT22;23174;49.462;11.000;2023-02-28T08:04:52;5.30;99.90
37289;DHT22;23174;49.462;11.000;2023-02-28T08:06:53;5.40;99.90
37289;DHT22;23174;49.462;11.000;2023-02-28T08:08:54;5.60;99.90
37289;DHT22;23174;49.462;11.000;2023-02-28T08:10:58;5.60;99.90
37289;DHT22;23174;49.462;11.000;2023-02-28T08:13:00;5.60;99.90
37289;DHT22;23174;49.462;11.000;2023-02-28T08:15:00;5.70;99.90
37289;DHT22;23174;49.462;11.000;2023-02-28T08:17:01;5.70;99.90
37289;DHT22;23174;49.462;11.000;2023-02-28T08:19:02;5.70;99.90
37289;DHT22;23174;49.462;11.000;2023-02-28T08:21:07;5.70;99.90
37289;DHT22;23174;49.462;11.000;2023-02-28T08:23:07;5.70;99.90
37289;DHT22;23174;49.462;11.000;2023-02-28T08:25:08;5.70;99.90
37289;DHT22;23174;49.462;11.000;2023-02-28T08:27:10;5.80;99.90
37289;DHT22;23174;49.462;11.000;2023-02-28T08:29:10;5.80;99.90
37289;DHT22;23174;49.462;11.000;2023-02-28T08:31:13;5.80;99.90
37289;DHT22;23174;49.462;11.000;2023-02-28T08:33:14;5.80;99.90
37289;DHT22;23174;49.462;11.000;2023-02-28T08:35:15;5.90;99.90
37289;DHT22;23174;49.462;11.000;2023-02-28T08:37:15;5.90;99.90
37289;DHT22;23174;49.462;11.000;2023-02-28T08:39:16;5.90;99.90
37289;DHT22;23174;49.462;11.000;2023-02-28T08:41:17;5.90;99.90
37289;DHT22;23174;49.462;11.000;2023-02-28T08:43:18;5.90;99.90
37289;DHT22;23174;49.462;11.000;2023-02-28T08:45:18;6.00;99.90
37289;DHT22;23174;49.462;11.000;2023-02-28T08:47:19;6.10;99.90
37289;DHT22;23174;49.462;11.000;2023-02-28T08:49:20;6.10;99.90
37289;DHT22;23174;49.462;11.000;2023-02-28T08:51:21;6.10;99.90
37289;DHT22;23174;49.462;11.000;2023-02-28T08:53:26;6.10;99.80
37289;DHT22;23174;49.462;11.000;2023-02-28T08:55:27;6.10;99.40
37289;DHT22;23174;49.462;11.000;2023-02-28T08:57:27;6.20;99.70
37289;DHT22;23174;49.462;11.000;2023-02-28T08:59:29;6.10;99.50
37289;DHT22;23174;49.462;11.000;2023-02-28T09:01:30;6.30;99.60
37289;DHT22;23174;49.462;11.000;2023-02-28T09:03:31;6.30;99.30
37289;DHT22;23174;49.462;11.000;2023-02-28T09:05:32;6.30;99.10
37289;DHT22;23174;49.462;11.000;2023-02-28T09:07:32;6.30;99.10
37289;DHT22;23174;49.462;11.000;2023-02-28T09:09:33;6.30;99.00
37289;DHT22;23174;49.462;11.000;2023-02-28T09:11:34;6.30;98.90
37289;DHT22;23174;49.462;11.000;2023-02-28T09:13:35;6.30;99.20
37289;DHT22;23174;49.462;11.000;2023-02-28T09:15:39;6.40;99.60
37289;DHT22;23174;49.462;11.000;2023-02-28T09:17:39;6.40;99.10
37289;DHT22;23174;49.462;11.000;2023-02-28T09:19:40;6.40;98.70
37289;DHT22;23174;49.462;11.000;2023-02-28T09:21:41;6.40;98.70
37289;DHT22;23174;49.462;11.000;2023-02-28T09:23:43;6.40;99.00
37289;DHT22;23174;49.462;11.000;2023-02-28T09:25:54;6.40;98.60
37289;DHT22;23174;49.462;11.000;2023-02-28T09:27:54;6.30;98.90
37289;DHT22;23174;49.462;11.000;2023-02-28T09:29:55;6.40;98.70
37289;DHT22;23174;49.462;11.000;2023-02-28T09:31:56;6.40;99.00
37289;DHT22;23174;49.462;11.000;2023-02-28T09:33:59;6.50;98.60
37289;DHT22;23174;49.462;11.000;2023-02-28T09:36:00;6.50;98.60
37289;DHT22;23174;49.462;11.000;2023-02-28T09:38:07;6.60;98.50
37289;DHT22;23174;49.462;11.000;2023-02-28T09:40:09;6.70;98.20
37289;DHT22;23174;49.462;11.000;2023-02-28T09:42:30;6.60;97.60
37289;DHT22;23174;49.462;11.000;2023-02-28T09:44:37;6.60;98.50
37289;DHT22;23174;49.462;11.000;2023-02-28T09:46:43;6.60;97.70
37289;DHT22;23174;49.462;11.000;2023-02-28T09:48:46;6.60;97.90
37289;DHT22;23174;49.462;11.000;2023-02-28T09:50:59;6.60;97.70
37289;DHT22;23174;49.462;11.000;2023-02-28T09:53:12;6.60;97.60
37289;DHT22;23174;49.462;11.000;2023-02-28T09:56:07;6.70;98.40
37289;DHT22;23174;49.462;11.000;2023-02-28T09:58:00;6.60;97.70
37289;DHT22;23174;49.462;11.000;2023-02-28T10:00:15;6.60;97.40
37289;DHT22;23174;49.462;11.000;2023-02-28T10:06:49;6.70;97.70
37289;DHT22;23174;49.462;11.000;2023-02-28T10:09:26;6.70;97.00
37289;DHT22;23174;49.462;11.000;2023-02-28T10:11:29;6.70;97.30
37289;DHT22;23174;49.462;11.000;2023-02-28T10:13:55;6.80;96.80
37289;DHT22;23174;49.462;11.000;2023-02-28T10:16:06;6.80;96.70
37289;DHT22;23174;49.462;11.000;2023-02-28T10:18:13;6.90;97.10
37289;DHT22;23174;49.462;11.000;2023-02-28T10:20:19;6.90;96.50
37289;DHT22;23174;49.462;11.000;2023-02-28T10:22:34;6.90;96.50
37289;DHT22;23174;49.462;11.000;2023-02-28T10:24:47;7.00;96.90
37289;DHT22;23174;49.462;11.000;2023-02-28T10:26:48;7.10;96.80
37289;DHT22;23174;49.462;11.000;2023-02-28T10:28:51;7.20;96.80
37289;DHT22;23174;49.462;11.000;2023-02-28T10:30:53;7.10;96.10
37289;DHT22;23174;49.462;11.000;2023-02-28T10:32:54;7.20;95.80
37289;DHT22;23174;49.462;11.000;2023-02-28T10:37:19;7.10;95.90
37289;DHT22;23174;49.462;11.000;2023-02-28T10:39:39;7.10;95.80
37289;DHT22;23174;49.462;11.000;2023-02-28T10:41:42;7.10;96.00
37289;DHT22;23174;49.462;11.000;2023-02-28T10:43:44;7.10;95.30
37289;DHT22;23174;49.462;11.000;2023-02-28T10:45:57;7.30;95.90
37289;DHT22;23174;49.462;11.000;2023-02-28T10:52:37;7.30;95.40
37289;DHT22;23174;49.462;11.000;2023-02-28T10:54:38;7.40;95.30
37289;DHT22;23174;49.462;11.000;2023-02-28T10:56:41;7.30;94.90
37289;DHT22;23174;49.462;11.000;2023-02-28T11:00:59;7.40;95.30
37289;DHT22;23174;49.462;11.000;2023-02-28T11:03:00;7.40;96.30
37289;DHT22;23174;49.462;11.000;2023-02-28T11:05:00;7.40;94.80
37289;DHT22;23174;49.462;11.000;2023-02-28T11:07:23;7.40;94.50
37289;DHT22;23174;49.462;11.000;2023-02-28T11:09:29;7.40;95.00
37289;DHT22;23174;49.462;11.000;2023-02-28T11:11:40;7.50;94.80
37289;DHT22;23174;49.462;11.000;2023-02-28T11:13:44;7.50;94.60
37289;DHT22;23174;49.462;11.000;2023-02-28T11:15:54;7.50;94.50
37289;DHT22;23174;49.462;11.000;2023-02-28T11:20:05;6.20;96.60
37289;DHT22;23174;49.462;11.000;2023-02-28T11:22:10;5.80;97.70
37289;DHT22;23174;49.462;11.000;2023-02-28T11:24:24;6.70;96.10
37289;DHT22;23174;49.462;11.000;2023-02-28T11:26:40;7.30;95.10
37289;DHT22;23174;49.462;11.000;2023-02-28T11:28:42;7.60;95.00
37289;DHT22;23174;49.462;11.000;2023-02-28T11:30:43;7.70;94.30
37289;DHT22;23174;49.462;11.000;2023-02-28T11:32:49;7.80;94.60
37289;DHT22;23174;49.462;11.000;2023-02-28T11:35:17;7.80;93.90
37289;DHT22;23174;49.462;11.000;2023-02-28T11:37:20;7.80;93.80
37289;DHT22;23174;49.462;11.000;2023-02-28T11:39:20;7.80;94.30
37289;DHT22;23174;49.462;11.000;2023-02-28T11:46:32;7.90;93.60
37289;DHT22;23174;49.462;11.000;2023-02-28T11:58:33;7.90;93.90
37289;DHT22;23174;49.462;11.000;2023-02-28T12:05:44;8.10;94.60
37289;DHT22;23174;49.462;11.000;2023-02-28T12:10:29;8.10;94.20
37289;DHT22;23174;49.462;11.000;2023-02-28T12:15:20;8.10;93.50
37289;DHT22;23174;49.462;11.000;2023-02-28T12:25:13;8.30;93.70
37289;DHT22;23174;49.462;11.000;2023-02-28T12:27:22;8.30;93.80
37289;DHT22;23174;49.462;11.000;2023-02-28T12:29:30;8.30;92.80
37289;DHT22;23174;49.462;11.000;2023-02-28T12:31:41;8.40;93.20
37289;DHT22;23174;49.462;11.000;2023-02-28T12:33:50;8.40;93.20
37289;DHT22;23174;49.462;11.000;2023-02-28T12:35:56;8.40;92.80
37289;DHT22;23174;49.462;11.000;2023-02-28T12:38:04;8.40;92.50
37289;DHT22;23174;49.462;11.000;2023-02-28T12:40:21;8.40;92.50
37289;DHT22;23174;49.462;11.000;2023-02-28T12:42:30;8.40;92.90
37289;DHT22;23174;49.462;11.000;2023-02-28T12:44:37;8.40;92.80
37289;DHT22;23174;49.462;11.000;2023-02-28T12:46:45;8.40;93.40
37289;DHT22;23174;49.462;11.000;2023-02-28T12:48:52;8.50;92.40
37289;DHT22;23174;49.462;11.000;2023-02-28T12:50:54;8.60;92.90
37289;DHT22;23174;49.462;11.000;2023-02-28T12:53:21;8.60;92.80
37289;DHT22;23174;49.462;11.000;2023-02-28T12:57:42;8.40;92.40
37289;DHT22;23174;49.462;11.000;2023-02-28T12:59:52;8.50;92.50
37289;DHT22;23174;49.462;11.000;2023-02-28T13:02:38;8.50;92.50
37289;DHT22;23174;49.462;11.000;2023-02-28T13:04:55;8.40;92.90
37289;DHT22;23174;49.462;11.000;2023-02-28T13:07:21;8.40;92.90
37289;DHT22;23174;49.462;11.000;2023-02-28T13:09:26;8.40;93.00
37289;DHT22;23174;49.462;11.000;2023-02-28T13:11:47;8.50;92.90
37289;DHT22;23174;49.462;11.000;2023-02-28T13:13:48;8.50;92.90
37289;DHT22;23174;49.462;11.000;2023-02-28T13:16:04;8.30;92.20
37289;DHT22;23174;49.462;11.000;2023-02-28T13:20:47;8.30;92.90
37289;DHT22;23174;49.462;11.000;2023-02-28T13:22:51;8.40;92.80
37289;DHT22;23174;49.462;11.000;2023-02-28T13:24:54;8.50;92.40
37289;DHT22;23174;49.462;11.000;2023-02-28T13:31:11;8.50;92.40
37289;DHT22;23174;49.462;11.000;2023-02-28T13:33:34;8.50;92.20
37289;DHT22;23174;49.462;11.000;2023-02-28T13:35:37;8.50;92.60
37289;DHT22;23174;49.462;11.000;2023-02-28T13:37:44;8.60;92.50
37289;DHT22;23174;49.462;11.000;2023-02-28T13:39:50;8.60;92.70
37289;DHT22;23174;49.462;11.000;2023-02-28T13:41:51;8.60;92.70
37289;DHT22;23174;49.462;11.000;2023-02-28T13:44:11;8.70;92.30
37289;DHT22;23174;49.462;11.000;2023-02-28T13:46:13;8.60;93.20
37289;DHT22;23174;49.462;11.000;2023-02-28T13:48:18;8.60;92.40
37289;DHT22;23174;49.462;11.000;2023-02-28T13:52:24;8.50;92.40
37289;DHT22;23174;49.462;11.000;2023-02-28T13:59:20;8.40;92.80
37289;DHT22;23174;49.462;11.000;2023-02-28T14:06:16;8.50;92.80
37289;DHT22;23174;49.462;11.000;2023-02-28T14:08:21;8.40;92.40
37289;DHT22;23174;49.462;11.000;2023-02-28T14:10:31;8.40;92.70
37289;DHT22;23174;49.462;11.000;2023-02-28T14:12:52;8.50;93.30
37289;DHT22;23174;49.462;11.000;2023-02-28T14:14:53;8.70;93.70
37289;DHT22;23174;49.462;11.000;2023-02-28T14:16:54;8.90;93.30
37289;DHT22;23174;49.462;11.000;2023-02-28T14:19:31;8.80;92.60
37289;DHT22;23174;49.462;11.000;2023-02-28T14:21:28;8.70;92.40
37289;DHT22;23174;49.462;11.000;2023-02-28T14:28:37;8.60;93.20
37289;DHT22;23174;49.462;11.000;2023-02-28T14:31:07;8.70;93.00
37289;DHT22;23174;49.462;11.000;2023-02-28T14:36:30;8.70;93.10
37289;DHT22;23174;49.462;11.000;2023-02-28T14:38:22;8.70;92.90
37289;DHT22;23174;49.462;11.000;2023-02-28T14:40:29;8.70;93.00
37289;DHT22;23174;49.462;11.000;2023-02-28T14:42:36;8.70;92.90
37289;DHT22;23174;49.462;11.000;2023-02-28T14:44:38;8.60;93.00
37289;DHT22;23174;49.462;11.000;2023-02-28T14:46:40;8.60;92.70
37289;DHT22;23174;49.462;11.000;2023-02-28T14:48:45;8.60;93.20